createdAt,value
2023-05-10T00:02:18.249Z,4.22
2023-05-10T01:51:45.747Z,5.20
2023-05-10T01:54:14.157Z,5.15
2023-05-10T01:56:48.946Z,5.20
2023-05-10T01:59:19.336Z,5.00
2023-05-10T02:01:48.040Z,5.72
2023-05-10T02:04:17.897Z,5.95
2023-05-10T02:06:48.957Z,5.45
2023-05-10T02:09:16.750Z,5.65
2023-05-10T02:11:44.642Z,5.95
2023-05-10T02:14:12.629Z,5.38
2023-05-10T02:16:41.155Z,5.03
2023-05-10T02:19:09.803Z,5.82
2023-05-10T02:21:37.326Z,5.28
2023-05-10T02:24:09.704Z,5.13
2023-05-10T02:26:39.106Z,5.15
2023-05-10T02:29:07.668Z,4.72
2023-05-10T02:31:36.267Z,4.93
2023-05-10T02:34:03.882Z,5.13
2023-05-10T02:36:30.865Z,4.97
2023-05-10T02:38:58.608Z,5.07
2023-05-10T02:41:27.373Z,4.53
2023-05-10T02:43:58.186Z,4.82
2023-05-10T02:46:26.875Z,5.35
2023-05-10T02:48:55.037Z,5.15
2023-05-10T02:51:28.469Z,5.35
2023-05-10T02:53:57.576Z,5.57
2023-05-10T02:56:34.242Z,5.38
2023-05-10T02:59:00.824Z,5.22
2023-05-10T03:01:27.337Z,4.60
2023-05-10T03:03:53.864Z,4.40
2023-05-10T03:06:20.342Z,4.97
2023-05-10T03:08:48.407Z,5.13
2023-05-10T03:11:33.665Z,5.50
2023-05-10T03:14:41.409Z,4.75
2023-05-10T03:17:16.589Z,4.80
2023-05-10T03:19:54.120Z,5.30
2023-05-10T03:22:33.344Z,5.28
2023-05-10T03:25:05.170Z,4.85
2023-05-10T03:27:32.468Z,4.55
2023-05-10T03:29:59.028Z,4.47
2023-05-10T03:32:25.687Z,5.07
2023-05-10T03:37:18.563Z,4.80
2023-05-10T03:39:45.111Z,4.65
2023-05-10T03:42:12.986Z,4.82
2023-05-10T03:44:43.006Z,4.38
2023-05-10T03:47:09.755Z,4.82
2023-05-10T03:52:02.727Z,4.50
2023-05-10T03:54:29.228Z,4.55
2023-05-10T03:56:55.747Z,4.65
2023-05-10T03:59:22.235Z,4.47
2023-05-10T04:01:48.720Z,4.88
2023-05-10T04:04:15.258Z,5.25
2023-05-10T04:06:41.771Z,4.60
2023-05-10T04:09:09.444Z,4.57
2023-05-10T04:11:36.034Z,4.97
2023-05-10T04:14:02.540Z,4.07
2023-05-10T04:16:29.005Z,4.45
2023-05-10T04:18:55.496Z,4.20
2023-05-10T04:21:21.967Z,4.72
2023-05-10T04:23:48.692Z,4.38
2023-05-10T04:26:15.220Z,4.18
2023-05-10T04:28:41.748Z,4.20
2023-05-10T04:31:20.779Z,4.25
2023-05-10T04:33:47.249Z,4.85
2023-05-10T04:36:13.760Z,4.75
2023-05-10T04:38:40.319Z,3.95
2023-05-10T04:41:08.774Z,4.60
2023-05-10T04:43:35.875Z,4.57
2023-05-10T04:46:02.398Z,5.13
2023-05-10T04:48:29.335Z,4.20
2023-05-10T04:53:22.360Z,4.47
2023-05-10T04:55:49.129Z,3.92
2023-05-10T04:58:15.713Z,4.30
2023-05-10T05:00:42.685Z,4.72
2023-05-10T05:03:09.522Z,4.07
2023-05-10T05:05:36.106Z,4.20
2023-05-10T05:08:02.611Z,4.25
2023-05-10T05:10:29.116Z,4.47
2023-05-10T05:12:55.642Z,3.88
2023-05-10T05:15:44.681Z,4.13
2023-05-10T05:18:21.291Z,4.25
2023-05-10T05:23:14.167Z,3.95
2023-05-10T05:25:40.666Z,3.85
2023-05-10T05:28:07.142Z,5.07
2023-05-10T05:30:33.717Z,5.35
2023-05-10T05:33:00.396Z,3.58
2023-05-10T05:37:53.533Z,3.92
2023-05-10T05:40:21.366Z,3.22
2023-05-10T05:42:47.897Z,3.45
2023-05-10T05:45:14.713Z,4.07
2023-05-10T05:47:42.455Z,3.28
2023-05-10T05:50:10.746Z,3.17
2023-05-10T05:52:37.397Z,3.35
2023-05-10T05:55:04.730Z,3.00
2023-05-10T05:57:31.428Z,3.45
2023-05-10T05:59:58.101Z,3.33
2023-05-10T06:02:25.875Z,3.25
2023-05-10T06:04:55.930Z,4.07
2023-05-10T06:07:22.605Z,3.40
2023-05-10T06:09:50.265Z,3.42
2023-05-10T06:12:16.728Z,3.28
2023-05-10T06:14:43.210Z,3.20
2023-05-10T06:17:09.845Z,2.92
2023-05-10T06:19:36.731Z,3.53
2023-05-10T06:22:03.328Z,2.78
2023-05-10T06:24:29.937Z,2.72
2023-05-10T06:26:56.566Z,2.70
2023-05-10T06:29:23.272Z,3.00
2023-05-10T06:34:19.007Z,2.63
2023-05-10T06:36:45.619Z,2.63
2023-05-10T06:39:13.098Z,2.55
2023-05-10T06:41:44.970Z,3.03
2023-05-10T06:44:11.642Z,2.85
2023-05-10T06:46:38.249Z,2.75
2023-05-10T06:49:05.529Z,2.40
2023-05-10T06:51:34.251Z,2.40
2023-05-10T06:54:01.207Z,2.53
2023-05-10T06:56:27.902Z,2.50
2023-05-10T06:58:54.472Z,2.78
2023-05-10T07:01:21.024Z,2.58
2023-05-10T07:03:47.511Z,2.55
2023-05-10T07:06:29.282Z,2.45
2023-05-10T07:08:59.141Z,2.88
2023-05-10T07:11:25.815Z,2.88
2023-05-10T07:16:18.728Z,2.47
2023-05-10T07:18:45.692Z,2.58
2023-05-10T07:21:12.251Z,3.50
2023-05-10T07:23:38.787Z,2.45
2023-05-10T07:26:08.061Z,2.95
2023-05-10T07:28:38.667Z,2.80
2023-05-10T07:31:05.630Z,3.03
2023-05-10T07:33:32.153Z,2.83
2023-05-10T07:35:58.951Z,2.90
2023-05-10T07:38:25.703Z,2.75
2023-05-10T07:43:22.301Z,2.97
2023-05-10T07:48:16.125Z,2.00
2023-05-10T07:53:11.624Z,2.03
2023-05-10T07:55:41.885Z,2.42
2023-05-10T07:58:08.318Z,2.55
2023-05-10T08:00:35.030Z,2.58
2023-05-10T08:05:28.450Z,2.33
2023-05-10T08:10:26.101Z,2.80
2023-05-10T08:12:53.087Z,2.38
2023-05-10T08:15:19.976Z,2.83
2023-05-10T08:17:46.879Z,2.95
2023-05-10T08:20:17.834Z,6.93
2023-05-10T08:22:44.396Z,6.43
2023-05-10T08:25:11.149Z,3.15
2023-05-10T08:30:57.021Z,2.47
2023-05-10T08:33:23.788Z,2.50
2023-05-10T08:35:59.757Z,2.67
2023-05-10T08:38:27.090Z,3.03
2023-05-10T08:40:57.674Z,2.88
2023-05-10T08:43:29.337Z,2.50
2023-05-10T08:45:59.780Z,2.30
2023-05-10T08:48:30.595Z,2.28
2023-05-10T08:51:00.736Z,2.05
2023-05-10T08:53:28.441Z,2.28
2023-05-10T08:55:55.497Z,2.70
2023-05-10T08:58:22.045Z,3.13
2023-05-10T09:00:51.916Z,2.53
2023-05-10T09:03:19.893Z,2.40
2023-05-10T09:05:46.920Z,2.40
2023-05-10T09:08:15.472Z,2.97
2023-05-10T09:10:48.434Z,2.95
2023-05-10T09:13:16.665Z,2.63
2023-05-10T09:15:45.357Z,2.45
2023-05-10T09:18:12.263Z,2.40
2023-05-10T09:20:38.968Z,2.63
2023-05-10T09:23:06.100Z,3.03
2023-05-10T09:25:35.730Z,2.47
2023-05-10T09:28:02.620Z,2.28
2023-05-10T09:30:33.146Z,3.03
2023-05-10T09:33:00.912Z,2.33
2023-05-10T09:35:33.164Z,2.10
2023-05-10T09:38:03.429Z,2.28
2023-05-10T09:40:31.134Z,2.50
2023-05-10T09:43:07.304Z,3.28
2023-05-10T09:45:38.287Z,2.33
2023-05-10T09:48:08.108Z,2.63
2023-05-10T09:50:35.474Z,2.83
2023-05-10T09:53:04.772Z,1.95
2023-05-10T09:55:45.133Z,2.67
2023-05-10T09:58:14.714Z,2.80
2023-05-10T10:00:42.723Z,4.05
2023-05-10T10:03:18.423Z,2.40
2023-05-10T10:05:46.300Z,2.30
2023-05-10T10:08:13.827Z,2.45
2023-05-10T10:10:47.214Z,2.50
2023-05-10T10:13:14.252Z,2.10
2023-05-10T10:15:44.111Z,2.45
2023-05-10T10:18:14.492Z,2.55
2023-05-10T10:20:41.670Z,2.53
2023-05-10T10:23:09.127Z,2.58
2023-05-10T10:25:36.380Z,2.80
2023-05-10T10:28:17.398Z,2.92
2023-05-10T10:30:46.980Z,2.70
2023-05-10T10:33:34.828Z,2.38
2023-05-10T10:36:03.600Z,2.22
2023-05-10T10:39:00.256Z,2.60
2023-05-10T10:41:34.129Z,2.47
2023-05-10T10:44:26.825Z,2.95
2023-05-10T10:47:24.356Z,2.55
2023-05-10T10:49:53.188Z,2.80
2023-05-10T10:52:38.225Z,2.35
2023-05-10T10:55:12.719Z,2.72
2023-05-10T10:57:42.384Z,2.45
2023-05-10T11:00:29.165Z,2.38
2023-05-10T11:03:07.785Z,2.15
2023-05-10T11:05:35.529Z,2.40
2023-05-10T11:08:09.859Z,2.15
2023-05-10T11:10:38.017Z,2.25
2023-05-10T11:13:06.997Z,2.95
2023-05-10T11:15:49.683Z,2.35
2023-05-10T11:18:25.844Z,2.13
2023-05-10T11:20:57.506Z,3.10
2023-05-10T11:23:30.181Z,2.53
2023-05-10T11:25:56.889Z,2.00
2023-05-10T11:28:23.986Z,2.30
2023-05-10T11:30:50.914Z,2.40
2023-05-10T11:33:19.136Z,2.75
2023-05-10T11:35:45.868Z,2.30
2023-05-10T11:38:14.307Z,2.63
2023-05-10T11:40:41.940Z,2.63
2023-05-10T11:43:11.416Z,2.40
2023-05-10T11:51:49.708Z,2.35
2023-05-10T11:54:24.145Z,2.42
2023-05-10T12:16:16.830Z,2.03
2023-05-10T12:19:11.613Z,2.58
2023-05-10T12:22:46.261Z,1.95
2023-05-10T12:29:20.409Z,2.25
2023-05-10T12:39:04.130Z,2.38
2023-05-10T12:41:51.856Z,2.45
2023-05-10T13:03:52.632Z,2.60
2023-05-10T13:08:51.008Z,3.38
2023-05-10T13:11:21.232Z,2.47
2023-05-10T13:13:47.876Z,2.33
2023-05-10T13:16:19.551Z,2.45
2023-05-10T13:18:46.161Z,2.42
2023-05-10T13:26:21.260Z,2.47
2023-05-10T13:38:25.975Z,2.63
2023-05-10T13:43:23.162Z,2.47
2023-05-10T13:45:49.738Z,2.17
2023-05-10T13:50:45.485Z,2.05
2023-05-10T13:53:12.361Z,1.92
2023-05-10T13:55:43.576Z,2.50
2023-05-10T13:59:17.914Z,2.10
2023-05-10T14:01:48.246Z,1.98
2023-05-10T14:04:14.809Z,2.17
2023-05-10T14:06:41.680Z,2.70
2023-05-10T14:09:22.557Z,1.65
2023-05-10T14:12:06.449Z,2.50
2023-05-10T14:14:33.582Z,2.42
2023-05-10T14:17:00.424Z,2.30
2023-05-10T14:19:35.032Z,2.10
2023-05-10T14:22:01.528Z,2.15
2023-05-10T14:24:28.036Z,1.90
2023-05-10T14:26:57.662Z,1.75
2023-05-10T14:29:24.485Z,2.00
2023-05-10T14:32:06.995Z,2.50
2023-05-10T14:34:33.889Z,2.20
2023-05-10T14:37:00.380Z,2.10
2023-05-10T14:41:53.627Z,1.98
2023-05-10T14:44:20.495Z,2.10
2023-05-10T14:46:47.456Z,2.40
2023-05-10T14:49:23.350Z,2.05
2023-05-10T14:52:09.661Z,1.70
2023-05-10T14:54:36.239Z,2.47
2023-05-10T14:59:29.179Z,1.77
2023-05-10T15:01:56.664Z,2.38
2023-05-10T15:04:28.366Z,1.83
2023-05-10T15:07:00.217Z,1.90
2023-05-10T15:09:28.554Z,1.67
2023-05-10T15:11:55.961Z,1.92
2023-05-10T15:14:23.520Z,1.85
2023-05-10T15:16:58.904Z,2.00
2023-05-10T15:19:25.439Z,2.30
2023-05-10T15:24:19.333Z,2.03
2023-05-10T15:26:48.705Z,2.60
2023-05-10T15:29:20.973Z,2.10
2023-05-10T15:31:52.099Z,1.90
2023-05-10T15:34:22.211Z,2.28
2023-05-10T15:37:14.263Z,2.13
2023-05-10T15:39:41.864Z,2.03
2023-05-10T15:42:08.627Z,2.25
2023-05-10T15:44:36.229Z,2.47
2023-05-10T15:47:03.833Z,2.13
2023-05-10T15:49:31.442Z,2.05
2023-05-10T15:51:58.062Z,2.38
2023-05-10T15:56:50.960Z,2.80
2023-05-10T15:59:17.471Z,2.25
2023-05-10T16:01:44.016Z,2.13
2023-05-10T16:04:10.481Z,2.20
2023-05-10T16:06:38.095Z,2.20
2023-05-10T16:09:04.880Z,2.80
2023-05-10T16:11:31.608Z,2.30
2023-05-10T16:19:54.365Z,2.47
2023-05-10T16:27:01.502Z,1.88
2023-05-10T16:33:30.537Z,2.20
2023-05-10T16:36:39.550Z,2.60
2023-05-10T16:54:43.044Z,4.10
2023-05-10T16:57:09.988Z,4.55
2023-05-10T16:59:36.914Z,4.95
2023-05-10T17:02:03.786Z,4.63
2023-05-10T17:04:34.066Z,4.60
2023-05-10T17:07:00.722Z,4.25
2023-05-10T17:11:57.893Z,5.45
2023-05-10T17:14:30.350Z,4.28
2023-05-10T17:16:57.099Z,4.38
2023-05-10T17:19:26.303Z,3.97
2023-05-10T17:21:53.159Z,4.50
2023-05-10T17:26:46.175Z,3.65
2023-05-10T17:29:14.142Z,3.90
2023-05-10T17:31:46.571Z,4.47
2023-05-10T17:34:13.141Z,3.85
2023-05-10T17:36:39.997Z,4.32
2023-05-10T17:39:14.478Z,3.92
2023-05-10T17:42:02.771Z,4.40
2023-05-10T17:44:36.821Z,4.15
2023-05-10T17:47:03.719Z,4.13
2023-05-10T17:49:30.458Z,4.30
2023-05-10T17:54:29.504Z,4.20
2023-05-10T17:57:06.011Z,4.25
2023-05-10T17:59:41.823Z,4.23
2023-05-10T18:02:08.650Z,4.80
2023-05-10T18:07:04.752Z,4.05
2023-05-10T18:12:04.709Z,3.95
2023-05-10T18:14:40.738Z,3.80
2023-05-10T18:17:09.402Z,4.68
2023-05-10T18:19:36.234Z,4.53
2023-05-10T18:22:03.238Z,4.18
2023-05-10T18:27:09.175Z,5.47
2023-05-10T18:29:48.254Z,4.75
2023-05-10T18:32:15.008Z,4.40
2023-05-10T18:37:09.697Z,3.97
2023-05-10T18:39:37.390Z,3.47
2023-05-10T18:42:05.316Z,4.00
2023-05-10T18:44:31.986Z,4.50
2023-05-10T18:46:59.421Z,4.43
2023-05-10T18:49:27.541Z,3.83
2023-05-10T18:52:00.628Z,4.05
2023-05-10T18:54:27.559Z,4.25
2023-05-10T18:56:54.257Z,4.03
2023-05-10T18:59:20.861Z,4.10
2023-05-10T19:01:49.476Z,4.53
2023-05-10T19:04:17.492Z,4.75
2023-05-10T19:06:44.360Z,4.55
2023-05-10T19:09:13.312Z,4.50
2023-05-10T19:11:41.126Z,4.38
2023-05-10T19:14:07.842Z,4.43
2023-05-10T19:19:02.144Z,4.90
2023-05-10T19:21:29.199Z,4.45
2023-05-10T19:23:58.389Z,4.35
2023-05-10T19:26:25.051Z,4.35
2023-05-10T19:28:52.623Z,4.03
2023-05-10T19:31:20.219Z,4.85
2023-05-10T19:33:47.274Z,4.65
2023-05-10T19:36:13.993Z,4.85
2023-05-10T19:38:40.738Z,5.18
2023-05-10T19:43:40.443Z,4.80
2023-05-10T19:46:09.032Z,4.85
2023-05-10T19:48:36.070Z,4.07
2023-05-10T19:51:08.651Z,4.57
2023-05-10T19:53:36.933Z,4.63
2023-05-10T19:56:07.335Z,4.88
2023-05-10T19:58:38.019Z,5.10
2023-05-10T20:01:11.338Z,5.40
2023-05-10T20:03:38.306Z,5.43
2023-05-10T20:06:05.465Z,5.70
2023-05-10T20:08:34.556Z,5.65
2023-05-10T20:11:04.062Z,5.55
2023-05-10T20:13:33.512Z,5.43
2023-05-10T20:16:00.567Z,5.18
2023-05-10T20:18:27.307Z,5.80
2023-05-10T20:23:22.478Z,5.22
2023-05-10T20:25:51.683Z,5.80
2023-05-10T20:28:23.877Z,6.03
2023-05-10T20:30:55.002Z,5.38
2023-05-10T20:33:22.711Z,5.32
2023-05-10T20:35:50.377Z,5.88
2023-05-10T20:38:18.293Z,5.85
2023-05-10T20:40:44.954Z,5.47
2023-05-10T20:43:11.523Z,6.10
2023-05-10T20:45:38.120Z,6.38
2023-05-10T20:48:05.124Z,6.05
2023-05-10T20:50:31.799Z,5.90
2023-05-10T20:52:58.467Z,5.18
2023-05-10T20:55:25.020Z,5.97
2023-05-10T20:57:51.732Z,5.88
2023-05-10T21:02:46.530Z,6.32
2023-05-10T21:05:13.229Z,6.80
2023-05-10T21:07:39.919Z,5.63
2023-05-10T21:10:08.213Z,6.32
2023-05-10T21:12:34.753Z,6.25
2023-05-10T21:15:01.296Z,6.10
2023-05-10T21:17:27.778Z,6.07
2023-05-10T21:19:54.329Z,6.20
2023-05-10T21:22:20.859Z,6.55
2023-05-10T21:24:47.347Z,6.55
2023-05-10T21:27:13.799Z,6.57
2023-05-10T21:29:40.294Z,5.85
2023-05-10T21:32:06.801Z,6.15
2023-05-10T21:34:33.780Z,6.38
2023-05-10T21:37:00.361Z,6.68
2023-05-10T21:39:26.844Z,6.10
2023-05-10T21:41:53.763Z,5.88
2023-05-10T21:44:20.268Z,6.47
2023-05-10T21:46:46.743Z,6.10
2023-05-10T21:49:13.237Z,5.85
2023-05-10T21:51:39.742Z,6.20
2023-05-10T21:54:06.358Z,6.15
2023-05-10T21:56:32.789Z,6.10
2023-05-10T21:58:59.261Z,6.57
2023-05-10T22:01:27.510Z,5.70
2023-05-10T22:03:54.125Z,6.65
2023-05-10T22:06:20.585Z,6.43
2023-05-10T22:08:47.044Z,6.95
2023-05-10T22:11:13.549Z,6.55
2023-05-10T22:13:40.040Z,6.70
2023-05-10T22:16:06.966Z,6.78
2023-05-10T22:18:33.463Z,6.63
2023-05-10T22:21:00.124Z,6.55
2023-05-10T22:23:26.621Z,6.40
2023-05-10T22:25:53.144Z,5.85
2023-05-10T22:28:19.654Z,6.85
2023-05-10T22:30:46.207Z,6.50
2023-05-10T22:33:12.714Z,6.32
2023-05-10T22:35:39.182Z,6.60
2023-05-10T22:38:05.631Z,6.22
2023-05-10T22:40:32.230Z,6.50
2023-05-10T22:42:58.763Z,7.18
2023-05-10T22:45:25.793Z,6.78
2023-05-10T22:47:52.454Z,8.00
2023-05-10T22:50:19.346Z,6.78
2023-05-10T22:52:46.374Z,7.43
2023-05-10T22:57:39.287Z,7.68
2023-05-10T23:00:06.487Z,8.65
2023-05-10T23:02:33.194Z,7.75
2023-05-10T23:04:59.702Z,9.07
2023-05-10T23:07:26.185Z,8.82
2023-05-10T23:09:52.629Z,8.48
2023-05-10T23:12:19.166Z,8.07
2023-05-10T23:14:46.670Z,8.43
2023-05-10T23:17:13.592Z,8.23
2023-05-10T23:19:40.075Z,8.25
2023-05-10T23:22:06.583Z,8.48
2023-05-10T23:24:33.112Z,8.30
2023-05-10T23:26:59.572Z,7.32
2023-05-10T23:29:26.736Z,6.55
2023-05-10T23:31:53.424Z,6.85
2023-05-10T23:34:19.959Z,6.68
2023-05-10T23:36:46.550Z,7.63
2023-05-10T23:39:13.548Z,7.20
2023-05-10T23:41:40.021Z,7.50
2023-05-10T23:44:06.633Z,7.53
2023-05-10T23:46:33.057Z,7.07
2023-05-10T23:48:59.521Z,7.32
2023-05-10T23:51:26.092Z,6.13
2023-05-10T23:53:52.540Z,6.88
2023-05-10T23:56:19.004Z,6.97
2023-05-10T23:58:46.407Z,7.20
